sensor_id;sensor_type;location;lat;lon;timestamp;pressure;altitude;pressure_sealevel;temperature;humidity
9521;BME280;4798;41.574;23.734;2023-03-20T00:02:05;95781.88;;;8.95;54.28
9521;BME280;4798;41.574;23.734;2023-03-20T00:04:33;95772.22;;;9.06;53.94
9521;BME280;4798;41.574;23.734;2023-03-20T00:07:02;95740.81;;;8.88;53.64
9521;BME280;4798;41.574;23.734;2023-03-20T00:09:30;95775.09;;;9.05;53.64
9521;BME280;4798;41.574;23.734;2023-03-20T00:12:01;95771.44;;;9.06;54.21
9521;BME280;4798;41.574;23.734;2023-03-20T00:14:29;95769.81;;;9.05;54.34
9521;BME280;4798;41.574;23.734;2023-03-20T00:16:58;95767.13;;;9.00;54.75
9521;BME280;4798;41.574;23.734;2023-03-20T00:19:27;95768.41;;;8.97;54.27
9521;BME280;4798;41.574;23.734;2023-03-20T00:21:56;95768.16;;;8.99;54.19
9521;BME280;4798;41.574;23.734;2023-03-20T00:24:25;95726.06;;;8.70;53.97
9521;BME280;4798;41.574;23.734;2023-03-20T00:26:53;95723.03;;;8.57;54.12
9521;BME280;4798;41.574;23.734;2023-03-20T00:29:25;95760.53;;;8.80;54.11
9521;BME280;4798;41.574;23.734;2023-03-20T00:31:54;95749.84;;;8.92;53.69
9521;BME280;4798;41.574;23.734;2023-03-20T00:34:24;95749.25;;;8.85;54.26
9521;BME280;4798;41.574;23.734;2023-03-20T00:36:55;95736.41;;;8.72;54.72
9521;BME280;4798;41.574;23.734;2023-03-20T00:39:24;95743.41;;;8.83;54.90
9521;BME280;4798;41.574;23.734;2023-03-20T00:41:53;95750.97;;;8.74;54.90
9521;BME280;4798;41.574;23.734;2023-03-20T00:44:25;95746.44;;;8.70;55.38
9521;BME280;4798;41.574;23.734;2023-03-20T00:46:56;95743.75;;;8.65;55.50
9521;BME280;4798;41.574;23.734;2023-03-20T00:49:26;95744.22;;;8.62;55.15
9521;BME280;4798;41.574;23.734;2023-03-20T00:51:55;95747.59;;;8.57;55.04
9521;BME280;4798;41.574;23.734;2023-03-20T00:54:24;95741.88;;;8.65;54.90
9521;BME280;4798;41.574;23.734;2023-03-20T00:56:55;95743.22;;;8.46;55.46
9521;BME280;4798;41.574;23.734;2023-03-20T00:59:30;95746.41;;;8.48;55.57
9521;BME280;4798;41.574;23.734;2023-03-20T01:02:00;95741.13;;;8.10;56.53
9521;BME280;4798;41.574;23.734;2023-03-20T01:04:33;95746.13;;;7.73;57.30
9521;BME280;4798;41.574;23.734;2023-03-20T01:07:03;95739.41;;;7.65;58.61
9521;BME280;4798;41.574;23.734;2023-03-20T01:09:31;95721.94;;;7.98;57.98
9521;BME280;4798;41.574;23.734;2023-03-20T01:12:01;95738.59;;;7.98;58.02
9521;BME280;4798;41.574;23.734;2023-03-20T01:14:31;95741.94;;;8.27;58.60
9521;BME280;4798;41.574;23.734;2023-03-20T01:17:00;95732.47;;;8.31;57.39
9521;BME280;4798;41.574;23.734;2023-03-20T01:19:28;95738.69;;;8.25;57.29
9521;BME280;4798;41.574;23.734;2023-03-20T01:21:56;95731.38;;;8.27;56.89
9521;BME280;4798;41.574;23.734;2023-03-20T01:24:25;95735.91;;;8.15;57.07
9521;BME280;4798;41.574;23.734;2023-03-20T01:26:53;95737.22;;;8.29;59.38
9521;BME280;4798;41.574;23.734;2023-03-20T01:29:41;95740.41;;;8.31;56.62
9521;BME280;4798;41.574;23.734;2023-03-20T01:32:11;95740.66;;;8.29;56.45
9521;BME280;4798;41.574;23.734;2023-03-20T01:34:40;95748.00;;;8.27;56.08
9521;BME280;4798;41.574;23.734;2023-03-20T01:37:11;95739.84;;;8.12;56.36
9521;BME280;4798;41.574;23.734;2023-03-20T01:39:41;95745.13;;;8.29;56.62
9521;BME280;4798;41.574;23.734;2023-03-20T01:42:11;95737.09;;;8.24;56.16
9521;BME280;4798;41.574;23.734;2023-03-20T01:44:43;95742.94;;;7.54;58.54
9521;BME280;4798;41.574;23.734;2023-03-20T01:47:14;95742.94;;;7.38;59.53
9521;BME280;4798;41.574;23.734;2023-03-20T01:50:18;95735.81;;;7.72;58.29
9521;BME280;4798;41.574;23.734;2023-03-20T01:52:50;95747.50;;;6.97;60.71
9521;BME280;4798;41.574;23.734;2023-03-20T01:55:21;95741.19;;;7.43;59.11
9521;BME280;4798;41.574;23.734;2023-03-20T01:57:50;95743.56;;;7.61;58.32
9521;BME280;4798;41.574;23.734;2023-03-20T02:00:20;95731.44;;;7.60;58.04
9521;BME280;4798;41.574;23.734;2023-03-20T02:02:49;95730.28;;;7.56;58.20
9521;BME280;4798;41.574;23.734;2023-03-20T02:05:20;95740.56;;;7.08;60.61
9521;BME280;4798;41.574;23.734;2023-03-20T02:07:55;95707.03;;;7.20;59.33
9521;BME280;4798;41.574;23.734;2023-03-20T02:10:25;95740.00;;;7.06;60.25
9521;BME280;4798;41.574;23.734;2023-03-20T02:12:54;95732.66;;;7.08;60.01
9521;BME280;4798;41.574;23.734;2023-03-20T02:15:26;95733.41;;;7.20;60.18
9521;BME280;4798;41.574;23.734;2023-03-20T02:17:56;95726.94;;;7.44;59.03
9521;BME280;4798;41.574;23.734;2023-03-20T02:20:35;95728.38;;;7.52;59.07
9521;BME280;4798;41.574;23.734;2023-03-20T02:23:44;95726.94;;;7.44;59.06
9521;BME280;4798;41.574;23.734;2023-03-20T02:26:28;95699.44;;;7.24;59.51
9521;BME280;4798;41.574;23.734;2023-03-20T02:35:51;95716.22;;;7.34;60.52
9521;BME280;4798;41.574;23.734;2023-03-20T02:38:32;95717.59;;;7.53;61.92
9521;BME280;4798;41.574;23.734;2023-03-20T02:41:10;95718.41;;;7.71;61.12
9521;BME280;4798;41.574;23.734;2023-03-20T02:43:45;95723.59;;;7.65;58.80
9521;BME280;4798;41.574;23.734;2023-03-20T02:46:25;95722.47;;;7.61;58.81
9521;BME280;4798;41.574;23.734;2023-03-20T02:49:02;95691.78;;;7.39;58.26
9521;BME280;4798;41.574;23.734;2023-03-20T02:51:37;95725.44;;;7.65;58.35
9521;BME280;4798;41.574;23.734;2023-03-20T02:54:13;95702.81;;;7.52;58.05
9521;BME280;4798;41.574;23.734;2023-03-20T02:56:50;95736.13;;;6.69;61.38
9521;BME280;4798;41.574;23.734;2023-03-20T02:59:27;95731.63;;;6.41;63.03
9521;BME280;4798;41.574;23.734;2023-03-20T03:02:02;95730.03;;;6.40;62.56
9521;BME280;4798;41.574;23.734;2023-03-20T03:04:35;95733.31;;;6.59;62.43
9521;BME280;4798;41.574;23.734;2023-03-20T03:07:07;95744.28;;;6.67;61.90
9521;BME280;4798;41.574;23.734;2023-03-20T03:09:41;95736.34;;;6.79;61.50
9521;BME280;4798;41.574;23.734;2023-03-20T03:12:14;95727.41;;;7.08;60.84
9521;BME280;4798;41.574;23.734;2023-03-20T03:14:46;95731.69;;;7.14;60.17
9521;BME280;4798;41.574;23.734;2023-03-20T03:17:17;95738.97;;;7.24;59.74
9521;BME280;4798;41.574;23.734;2023-03-20T03:19:49;95732.03;;;7.18;59.58
9521;BME280;4798;41.574;23.734;2023-03-20T03:22:19;95726.78;;;6.89;60.40
9521;BME280;4798;41.574;23.734;2023-03-20T03:24:50;95730.34;;;6.55;61.90
9521;BME280;4798;41.574;23.734;2023-03-20T03:27:22;95720.88;;;6.82;61.39
9521;BME280;4798;41.574;23.734;2023-03-20T03:29:54;95730.72;;;7.03;59.88
9521;BME280;4798;41.574;23.734;2023-03-20T03:32:29;95676.78;;;6.78;60.63
9521;BME280;4798;41.574;23.734;2023-03-20T03:35:00;95729.63;;;7.16;59.84
9521;BME280;4798;41.574;23.734;2023-03-20T03:37:40;95731.69;;;7.14;61.22
9521;BME280;4798;41.574;23.734;2023-03-20T03:40:18;95728.16;;;6.92;60.87
9521;BME280;4798;41.574;23.734;2023-03-20T03:42:55;95728.88;;;7.04;61.00
9521;BME280;4798;41.574;23.734;2023-03-20T03:45:29;95727.41;;;7.08;61.67
9521;BME280;4798;41.574;23.734;2023-03-20T03:48:02;95673.66;;;6.81;60.66
9521;BME280;4798;41.574;23.734;2023-03-20T03:50:36;95722.59;;;7.05;60.12
9521;BME280;4798;41.574;23.734;2023-03-20T03:53:09;95724.50;;;7.10;60.05
9521;BME280;4798;41.574;23.734;2023-03-20T03:55:42;95726.94;;;7.28;60.57
9521;BME280;4798;41.574;23.734;2023-03-20T03:58:17;95707.66;;;7.11;59.25
9521;BME280;4798;41.574;23.734;2023-03-20T04:00:47;95721.06;;;7.09;59.31
9521;BME280;4798;41.574;23.734;2023-03-20T04:03:18;95726.34;;;7.09;59.72
9521;BME280;4798;41.574;23.734;2023-03-20T04:05:51;95725.31;;;7.10;59.61
9521;BME280;4798;41.574;23.734;2023-03-20T04:08:21;95724.19;;;7.06;60.10
9521;BME280;4798;41.574;23.734;2023-03-20T04:10:52;95719.03;;;6.83;60.69
9521;BME280;4798;41.574;23.734;2023-03-20T04:13:20;95726.66;;;6.68;61.21
9521;BME280;4798;41.574;23.734;2023-03-20T04:15:48;95726.53;;;6.91;61.01
9521;BME280;4798;41.574;23.734;2023-03-20T04:18:17;95719.25;;;6.53;61.15
9521;BME280;4798;41.574;23.734;2023-03-20T04:20:46;95720.88;;;6.43;62.16
9521;BME280;4798;41.574;23.734;2023-03-20T04:23:15;95717.16;;;6.27;62.79
9521;BME280;4798;41.574;23.734;2023-03-20T04:25:43;95721.03;;;6.13;62.76
9521;BME280;4798;41.574;23.734;2023-03-20T04:28:13;95721.41;;;6.16;62.66
9521;BME280;4798;41.574;23.734;2023-03-20T04:30:42;95716.84;;;6.12;63.61
9521;BME280;4798;41.574;23.734;2023-03-20T04:33:14;95719.44;;;5.77;64.46
9521;BME280;4798;41.574;23.734;2023-03-20T04:35:42;95721.84;;;5.78;65.82
9521;BME280;4798;41.574;23.734;2023-03-20T04:38:10;95727.00;;;5.73;65.96
9521;BME280;4798;41.574;23.734;2023-03-20T04:40:39;95692.00;;;5.50;65.96
9521;BME280;4798;41.574;23.734;2023-03-20T04:43:07;95722.78;;;5.96;64.82
9521;BME280;4798;41.574;23.734;2023-03-20T04:45:37;95713.66;;;5.87;65.65
9521;BME280;4798;41.574;23.734;2023-03-20T04:48:05;95724.50;;;5.90;65.56
9521;BME280;4798;41.574;23.734;2023-03-20T04:50:34;95725.19;;;5.97;65.48
9521;BME280;4798;41.574;23.734;2023-03-20T04:53:02;95731.38;;;5.91;65.68
9521;BME280;4798;41.574;23.734;2023-03-20T04:55:31;95728.63;;;5.86;66.59
9521;BME280;4798;41.574;23.734;2023-03-20T04:58:00;95735.59;;;5.92;66.35
9521;BME280;4798;41.574;23.734;2023-03-20T05:00:28;95727.09;;;5.67;66.85
9521;BME280;4798;41.574;23.734;2023-03-20T05:03:01;95730.63;;;5.49;68.04
9521;BME280;4798;41.574;23.734;2023-03-20T05:05:29;95734.53;;;5.70;68.98
9521;BME280;4798;41.574;23.734;2023-03-20T05:07:59;95734.19;;;5.43;69.06
9521;BME280;4798;41.574;23.734;2023-03-20T05:10:27;95750.97;;;5.31;71.19
9521;BME280;4798;41.574;23.734;2023-03-20T05:12:56;95748.06;;;4.79;72.99
9521;BME280;4798;41.574;23.734;2023-03-20T05:15:24;95671.78;;;4.15;76.19
9521;BME280;4798;41.574;23.734;2023-03-20T05:17:53;95750.72;;;4.61;80.27
9521;BME280;4798;41.574;23.734;2023-03-20T05:20:25;95741.38;;;4.95;77.57
9521;BME280;4798;41.574;23.734;2023-03-20T05:22:53;95745.03;;;4.94;77.44
9521;BME280;4798;41.574;23.734;2023-03-20T05:25:22;95755.06;;;4.85;78.32
9521;BME280;4798;41.574;23.734;2023-03-20T05:27:50;95760.97;;;5.10;79.34
9521;BME280;4798;41.574;23.734;2023-03-20T05:30:19;95764.09;;;5.31;76.32
9521;BME280;4798;41.574;23.734;2023-03-20T05:32:48;95748.81;;;5.62;73.70
9521;BME280;4798;41.574;23.734;2023-03-20T05:35:18;95759.75;;;5.89;72.52
9521;BME280;4798;41.574;23.734;2023-03-20T05:37:48;95762.13;;;6.14;70.39
9521;BME280;4798;41.574;23.734;2023-03-20T05:40:16;95754.56;;;6.29;68.97
9521;BME280;4798;41.574;23.734;2023-03-20T05:42:46;95746.66;;;6.80;67.10
9521;BME280;4798;41.574;23.734;2023-03-20T05:45:14;95753.56;;;6.98;66.40
9521;BME280;4798;41.574;23.734;2023-03-20T05:47:43;95678.88;;;6.36;66.69
9521;BME280;4798;41.574;23.734;2023-03-20T05:50:12;95755.53;;;6.91;66.67
9521;BME280;4798;41.574;23.734;2023-03-20T05:52:40;95749.97;;;7.04;67.09
9521;BME280;4798;41.574;23.734;2023-03-20T05:55:10;95758.25;;;6.68;67.67
9521;BME280;4798;41.574;23.734;2023-03-20T05:57:38;95754.88;;;6.84;68.02
9521;BME280;4798;41.574;23.734;2023-03-20T06:00:09;95750.84;;;7.38;65.55
9521;BME280;4798;41.574;23.734;2023-03-20T06:02:37;95745.00;;;7.36;65.57
9521;BME280;4798;41.574;23.734;2023-03-20T06:05:06;95745.44;;;7.61;64.46
9521;BME280;4798;41.574;23.734;2023-03-20T06:07:34;95736.22;;;8.35;63.96
9521;BME280;4798;41.574;23.734;2023-03-20T06:10:03;95739.47;;;8.85;61.19
9521;BME280;4798;41.574;23.734;2023-03-20T06:12:33;95745.81;;;9.11;60.63
9521;BME280;4798;41.574;23.734;2023-03-20T06:15:02;95700.56;;;9.34;60.95
9521;BME280;4798;41.574;23.734;2023-03-20T06:17:31;95739.00;;;9.74;58.53
9521;BME280;4798;41.574;23.734;2023-03-20T06:19:59;95736.78;;;10.34;57.25
9521;BME280;4798;41.574;23.734;2023-03-20T06:22:28;95715.41;;;10.56;56.50
9521;BME280;4798;41.574;23.734;2023-03-20T06:24:56;95735.84;;;10.70;55.06
9521;BME280;4798;41.574;23.734;2023-03-20T06:27:24;95730.38;;;10.87;55.96
9521;BME280;4798;41.574;23.734;2023-03-20T06:29:54;95728.56;;;11.08;55.15
9521;BME280;4798;41.574;23.734;2023-03-20T06:32:22;95718.53;;;11.40;54.21
9521;BME280;4798;41.574;23.734;2023-03-20T06:34:51;95717.41;;;11.16;53.73
9521;BME280;4798;41.574;23.734;2023-03-20T06:37:20;95724.22;;;10.76;54.49
9521;BME280;4798;41.574;23.734;2023-03-20T06:39:48;95723.88;;;10.58;54.01
9521;BME280;4798;41.574;23.734;2023-03-20T06:42:17;95725.47;;;10.54;54.96
9521;BME280;4798;41.574;23.734;2023-03-20T06:44:45;95734.53;;;10.16;56.64
9521;BME280;4798;41.574;23.734;2023-03-20T06:47:16;95726.47;;;10.48;56.13
9521;BME280;4798;41.574;23.734;2023-03-20T06:49:44;95726.16;;;10.29;56.51
9521;BME280;4798;41.574;23.734;2023-03-20T06:52:14;95727.09;;;10.13;57.36
9521;BME280;4798;41.574;23.734;2023-03-20T06:54:43;95727.16;;;10.23;56.99
9521;BME280;4798;41.574;23.734;2023-03-20T06:57:12;95719.44;;;10.73;55.73
9521;BME280;4798;41.574;23.734;2023-03-20T06:59:41;95727.69;;;10.82;55.98
9521;BME280;4798;41.574;23.734;2023-03-20T07:02:09;95722.03;;;11.81;55.06
9521;BME280;4798;41.574;23.734;2023-03-20T07:04:39;95724.91;;;11.44;54.47
9521;BME280;4798;41.574;23.734;2023-03-20T07:07:08;95728.88;;;11.36;54.59
9521;BME280;4798;41.574;23.734;2023-03-20T07:09:36;95720.91;;;11.31;54.30
9521;BME280;4798;41.574;23.734;2023-03-20T07:12:09;95712.97;;;11.82;53.51
9521;BME280;4798;41.574;23.734;2023-03-20T07:14:40;95718.06;;;13.31;51.06
9521;BME280;4798;41.574;23.734;2023-03-20T07:17:09;95708.22;;;13.32;49.52
9521;BME280;4798;41.574;23.734;2023-03-20T07:19:37;95667.69;;;14.31;48.25
9521;BME280;4798;41.574;23.734;2023-03-20T07:22:13;95711.50;;;14.49;47.99
9521;BME280;4798;41.574;23.734;2023-03-20T07:24:45;95703.38;;;14.78;46.22
9521;BME280;4798;41.574;23.734;2023-03-20T07:27:14;95648.84;;;15.07;45.81
9521;BME280;4798;41.574;23.734;2023-03-20T07:29:42;95692.09;;;15.79;45.49
9521;BME280;4798;41.574;23.734;2023-03-20T07:32:11;95691.25;;;15.27;44.32
9521;BME280;4798;41.574;23.734;2023-03-20T07:34:39;95687.25;;;15.81;44.06
9521;BME280;4798;41.574;23.734;2023-03-20T07:37:09;95690.03;;;15.57;44.73
9521;BME280;4798;41.574;23.734;2023-03-20T07:39:37;95686.19;;;14.89;44.72
9521;BME280;4798;41.574;23.734;2023-03-20T07:42:05;95681.97;;;15.25;44.69
9521;BME280;4798;41.574;23.734;2023-03-20T07:44:34;95694.72;;;15.65;44.46
9521;BME280;4798;41.574;23.734;2023-03-20T07:47:02;95683.25;;;16.57;43.48
9521;BME280;4798;41.574;23.734;2023-03-20T07:49:31;95691.16;;;16.75;41.78
9521;BME280;4798;41.574;23.734;2023-03-20T07:52:00;95684.91;;;16.52;43.20
9521;BME280;4798;41.574;23.734;2023-03-20T07:54:30;95681.41;;;16.38;42.03
9521;BME280;4798;41.574;23.734;2023-03-20T07:56:58;95675.78;;;16.81;42.67
9521;BME280;4798;41.574;23.734;2023-03-20T07:59:27;95668.34;;;17.63;40.87
9521;BME280;4798;41.574;23.734;2023-03-20T08:01:55;95662.75;;;18.04;41.89
9521;BME280;4798;41.574;23.734;2023-03-20T08:04:24;95662.19;;;17.85;39.72
9521;BME280;4798;41.574;23.734;2023-03-20T08:06:52;95658.25;;;18.13;39.38
9521;BME280;4798;41.574;23.734;2023-03-20T08:09:21;95652.13;;;19.51;39.09
9521;BME280;4798;41.574;23.734;2023-03-20T08:11:50;95640.28;;;18.53;39.40
9521;BME280;4798;41.574;23.734;2023-03-20T08:14:19;95648.16;;;17.88;39.11
9521;BME280;4798;41.574;23.734;2023-03-20T08:16:47;95649.25;;;17.87;39.27
9521;BME280;4798;41.574;23.734;2023-03-20T08:19:35;95641.97;;;18.09;38.92
9521;BME280;4798;41.574;23.734;2023-03-20T08:22:04;95647.84;;;19.16;37.75
9521;BME280;4798;41.574;23.734;2023-03-20T08:24:32;95645.00;;;19.72;36.95
9521;BME280;4798;41.574;23.734;2023-03-20T08:27:02;95638.81;;;19.89;36.78
9521;BME280;4798;41.574;23.734;2023-03-20T08:29:31;95636.72;;;20.03;36.26
9521;BME280;4798;41.574;23.734;2023-03-20T08:31:59;95629.78;;;19.93;37.32
9521;BME280;4798;41.574;23.734;2023-03-20T08:34:29;95630.66;;;20.90;35.63
9521;BME280;4798;41.574;23.734;2023-03-20T08:36:58;95612.94;;;20.13;34.99
9521;BME280;4798;41.574;23.734;2023-03-20T08:39:26;95626.31;;;20.77;34.11
9521;BME280;4798;41.574;23.734;2023-03-20T08:41:54;95619.78;;;21.48;34.92
9521;BME280;4798;41.574;23.734;2023-03-20T08:44:27;95612.13;;;21.71;32.43
9521;BME280;4798;41.574;23.734;2023-03-20T08:46:56;95607.16;;;21.40;33.45
9521;BME280;4798;41.574;23.734;2023-03-20T08:49:25;95619.63;;;22.31;33.56
9521;BME280;4798;41.574;23.734;2023-03-20T08:51:53;95581.09;;;23.47;31.37
9521;BME280;4798;41.574;23.734;2023-03-20T08:54:22;95602.50;;;23.00;31.83
9521;BME280;4798;41.574;23.734;2023-03-20T08:56:51;95600.41;;;23.45;30.62
9521;BME280;4798;41.574;23.734;2023-03-20T08:59:19;95605.44;;;22.58;31.54
9521;BME280;4798;41.574;23.734;2023-03-20T09:01:49;95596.38;;;23.27;30.97
9521;BME280;4798;41.574;23.734;2023-03-20T09:04:17;95596.78;;;22.89;30.82
9521;BME280;4798;41.574;23.734;2023-03-20T09:06:46;95593.28;;;23.41;31.49
9521;BME280;4798;41.574;23.734;2023-03-20T09:09:14;95594.31;;;21.91;31.61
9521;BME280;4798;41.574;23.734;2023-03-20T09:11:45;95587.22;;;22.55;31.39
9521;BME280;4798;41.574;23.734;2023-03-20T09:14:13;95573.94;;;22.62;31.23
9521;BME280;4798;41.574;23.734;2023-03-20T09:16:42;95584.72;;;22.99;31.12
9521;BME280;4798;41.574;23.734;2023-03-20T09:19:11;95571.59;;;23.80;29.74
9521;BME280;4798;41.574;23.734;2023-03-20T09:21:40;95571.44;;;22.21;30.87
9521;BME280;4798;41.574;23.734;2023-03-20T09:24:08;95527.13;;;23.38;30.92
9521;BME280;4798;41.574;23.734;2023-03-20T09:26:37;95566.50;;;24.53;29.21
9521;BME280;4798;41.574;23.734;2023-03-20T09:29:05;95562.00;;;23.98;29.04
9521;BME280;4798;41.574;23.734;2023-03-20T09:31:34;95556.03;;;23.77;29.11
9521;BME280;4798;41.574;23.734;2023-03-20T09:34:02;95556.09;;;24.55;28.66
9521;BME280;4798;41.574;23.734;2023-03-20T09:36:32;95553.97;;;25.53;29.56
9521;BME280;4798;41.574;23.734;2023-03-20T09:39:01;95550.81;;;24.78;28.15
9521;BME280;4798;41.574;23.734;2023-03-20T09:41:29;95512.41;;;25.11;28.64
9521;BME280;4798;41.574;23.734;2023-03-20T09:44:33;95542.91;;;24.54;28.28
9521;BME280;4798;41.574;23.734;2023-03-20T09:47:14;95529.56;;;24.80;27.60
9521;BME280;4798;41.574;23.734;2023-03-20T09:49:56;95505.53;;;23.54;28.87
9521;BME280;4798;41.574;23.734;2023-03-20T09:52:29;95513.88;;;23.92;29.58
9521;BME280;4798;41.574;23.734;2023-03-20T09:55:02;95508.28;;;25.17;29.56
9521;BME280;4798;41.574;23.734;2023-03-20T09:57:37;95447.66;;;25.93;27.42
9521;BME280;4798;41.574;23.734;2023-03-20T10:00:11;95498.31;;;24.05;28.90
9521;BME280;4798;41.574;23.734;2023-03-20T10:02:46;95503.75;;;25.44;28.50
9521;BME280;4798;41.574;23.734;2023-03-20T10:05:20;95492.00;;;26.01;26.25
9521;BME280;4798;41.574;23.734;2023-03-20T10:07:53;95489.53;;;26.15;25.24
9521;BME280;4798;41.574;23.734;2023-03-20T10:10:27;95481.19;;;26.53;25.62
9521;BME280;4798;41.574;23.734;2023-03-20T10:13:08;95470.50;;;25.69;26.33
9521;BME280;4798;41.574;23.734;2023-03-20T10:15:46;95465.69;;;26.54;25.79
9521;BME280;4798;41.574;23.734;2023-03-20T10:18:22;95463.72;;;26.80;26.21
9521;BME280;4798;41.574;23.734;2023-03-20T10:20:54;95455.38;;;28.03;25.44
9521;BME280;4798;41.574;23.734;2023-03-20T10:23:32;95435.97;;;27.67;24.11
9521;BME280;4798;41.574;23.734;2023-03-20T10:26:05;95440.00;;;27.10;24.33
9521;BME280;4798;41.574;23.734;2023-03-20T10:28:40;95439.41;;;26.65;24.04
9521;BME280;4798;41.574;23.734;2023-03-20T10:31:21;95427.94;;;27.08;24.59
9521;BME280;4798;41.574;23.734;2023-03-20T10:34:03;95391.81;;;27.48;25.00
9521;BME280;4798;41.574;23.734;2023-03-20T10:36:48;95406.44;;;26.70;24.38
9521;BME280;4798;41.574;23.734;2023-03-20T10:39:28;95408.94;;;27.15;23.44
9521;BME280;4798;41.574;23.734;2023-03-20T10:42:01;95410.22;;;28.02;22.88
9521;BME280;4798;41.574;23.734;2023-03-20T10:44:33;95412.19;;;28.05;22.94
9521;BME280;4798;41.574;23.734;2023-03-20T10:47:07;95394.97;;;27.50;23.53
9521;BME280;4798;41.574;23.734;2023-03-20T10:49:40;95394.34;;;27.30;24.07
9521;BME280;4798;41.574;23.734;2023-03-20T10:52:12;95349.81;;;27.08;23.66
9521;BME280;4798;41.574;23.734;2023-03-20T10:54:47;95381.88;;;27.66;23.56
9521;BME280;4798;41.574;23.734;2023-03-20T10:57:20;95374.53;;;27.73;23.94
9521;BME280;4798;41.574;23.734;2023-03-20T10:59:51;95377.00;;;29.37;23.01
9521;BME280;4798;41.574;23.734;2023-03-20T11:02:21;95378.00;;;28.90;23.75
9521;BME280;4798;41.574;23.734;2023-03-20T11:04:49;95366.84;;;30.18;22.43
9521;BME280;4798;41.574;23.734;2023-03-20T11:07:23;95365.06;;;28.69;23.08
9521;BME280;4798;41.574;23.734;2023-03-20T11:10:09;95358.88;;;28.76;22.36
9521;BME280;4798;41.574;23.734;2023-03-20T11:12:39;95357.06;;;28.32;22.29
9521;BME280;4798;41.574;23.734;2023-03-20T11:15:22;95350.22;;;28.67;23.02
9521;BME280;4798;41.574;23.734;2023-03-20T11:17:56;95333.31;;;29.51;22.40
9521;BME280;4798;41.574;23.734;2023-03-20T11:20:31;95355.41;;;27.66;23.58
9521;BME280;4798;41.574;23.734;2023-03-20T11:23:03;95272.59;;;27.71;23.19
9521;BME280;4798;41.574;23.734;2023-03-20T11:25:36;95320.81;;;29.22;22.69
9521;BME280;4798;41.574;23.734;2023-03-20T11:28:19;95265.06;;;28.12;24.35
9521;BME280;4798;41.574;23.734;2023-03-20T11:30:49;95315.38;;;29.82;22.13
9521;BME280;4798;41.574;23.734;2023-03-20T11:33:32;95318.09;;;28.25;22.93
9521;BME280;4798;41.574;23.734;2023-03-20T11:36:10;95304.78;;;29.17;23.00
9521;BME280;4798;41.574;23.734;2023-03-20T11:38:43;95307.25;;;28.39;22.99
9521;BME280;4798;41.574;23.734;2023-03-20T11:41:19;95302.44;;;30.10;22.80
9521;BME280;4798;41.574;23.734;2023-03-20T11:43:49;95291.94;;;29.63;22.80
9521;BME280;4798;41.574;23.734;2023-03-20T11:46:19;95293.88;;;30.05;22.50
9521;BME280;4798;41.574;23.734;2023-03-20T11:49:05;95282.19;;;29.34;22.39
9521;BME280;4798;41.574;23.734;2023-03-20T11:51:35;95279.84;;;29.50;22.92
9521;BME280;4798;41.574;23.734;2023-03-20T11:54:05;95282.53;;;29.08;23.42
9521;BME280;4798;41.574;23.734;2023-03-20T11:56:36;95281.03;;;29.24;23.16
9521;BME280;4798;41.574;23.734;2023-03-20T11:59:12;95272.38;;;30.03;22.91
9521;BME280;4798;41.574;23.734;2023-03-20T12:01:43;95237.84;;;31.17;20.88
9521;BME280;4798;41.574;23.734;2023-03-20T12:04:15;95211.38;;;30.35;21.47
9521;BME280;4798;41.574;23.734;2023-03-20T12:06:48;95261.34;;;30.32;21.50
9521;BME280;4798;41.574;23.734;2023-03-20T12:09:28;95263.81;;;29.06;21.23
9521;BME280;4798;41.574;23.734;2023-03-20T12:12:01;95224.44;;;29.14;22.38
9521;BME280;4798;41.574;23.734;2023-03-20T12:14:36;95247.81;;;29.68;22.15
9521;BME280;4798;41.574;23.734;2023-03-20T12:17:29;95242.00;;;30.81;21.22
9521;BME280;4798;41.574;23.734;2023-03-20T12:20:03;95237.09;;;31.13;20.83
9521;BME280;4798;41.574;23.734;2023-03-20T12:22:35;95239.22;;;31.84;20.04
9521;BME280;4798;41.574;23.734;2023-03-20T12:25:15;95229.72;;;32.33;20.73
9521;BME280;4798;41.574;23.734;2023-03-20T12:27:51;95226.34;;;32.52;19.18
9521;BME280;4798;41.574;23.734;2023-03-20T12:30:27;95222.84;;;30.81;20.15
9521;BME280;4798;41.574;23.734;2023-03-20T12:33:01;95216.91;;;30.10;20.33
9521;BME280;4798;41.574;23.734;2023-03-20T12:35:33;95199.81;;;29.81;22.14
9521;BME280;4798;41.574;23.734;2023-03-20T12:38:08;95201.00;;;30.70;19.97
9521;BME280;4798;41.574;23.734;2023-03-20T12:40:44;95208.63;;;30.28;20.77
9521;BME280;4798;41.574;23.734;2023-03-20T12:43:17;95197.13;;;29.42;21.00
9521;BME280;4798;41.574;23.734;2023-03-20T12:45:53;95201.81;;;29.14;21.23
9521;BME280;4798;41.574;23.734;2023-03-20T12:48:36;95197.16;;;30.57;20.60
9521;BME280;4798;41.574;23.734;2023-03-20T12:51:12;95188.41;;;31.35;20.12
9521;BME280;4798;41.574;23.734;2023-03-20T12:53:54;95187.53;;;31.01;20.27
9521;BME280;4798;41.574;23.734;2023-03-20T12:56:46;95171.16;;;30.25;20.54
9521;BME280;4798;41.574;23.734;2023-03-20T12:59:26;95185.00;;;29.68;20.53
9521;BME280;4798;41.574;23.734;2023-03-20T13:02:00;95176.88;;;29.47;20.61
9521;BME280;4798;41.574;23.734;2023-03-20T13:04:50;95172.44;;;29.99;20.12
9521;BME280;4798;41.574;23.734;2023-03-20T13:07:36;95121.81;;;29.59;20.23
9521;BME280;4798;41.574;23.734;2023-03-20T13:10:17;95160.09;;;28.74;20.38
9521;BME280;4798;41.574;23.734;2023-03-20T13:12:57;95143.56;;;26.77;21.32
9521;BME280;4798;41.574;23.734;2023-03-20T13:15:39;95162.00;;;28.53;21.75
9521;BME280;4798;41.574;23.734;2023-03-20T13:18:14;95155.38;;;28.57;21.57
9521;BME280;4798;41.574;23.734;2023-03-20T13:20:48;95146.47;;;28.71;21.87
9521;BME280;4798;41.574;23.734;2023-03-20T13:23:21;94983.75;;;27.25;21.39
9521;BME280;4798;41.574;23.734;2023-03-20T13:26:13;95143.34;;;28.72;22.51
9521;BME280;4798;41.574;23.734;2023-03-20T13:28:51;95145.69;;;29.20;21.39
9521;BME280;4798;41.574;23.734;2023-03-20T13:34:29;95144.50;;;29.14;21.44
9521;BME280;4798;41.574;23.734;2023-03-20T13:37:14;95131.03;;;27.85;20.13
9521;BME280;4798;41.574;23.734;2023-03-20T13:39:59;95128.16;;;29.21;19.81
9521;BME280;4798;41.574;23.734;2023-03-20T13:42:31;95075.47;;;29.34;19.21
9521;BME280;4798;41.574;23.734;2023-03-20T13:45:04;95124.47;;;29.84;20.09
9521;BME280;4798;41.574;23.734;2023-03-20T13:47:37;95112.06;;;30.45;19.43
9521;BME280;4798;41.574;23.734;2023-03-20T13:50:18;95109.03;;;29.24;19.82
9521;BME280;4798;41.574;23.734;2023-03-20T13:52:56;95112.88;;;29.51;19.33